LOT7AZ EPWA-UBBB
Flight info
| Callsign | LOT7AZ |
|---|---|
| Flight time | N/A |
| Altitude | 35000 |
| Route | XIMBA DCT OMAVA DCT ROBTU DCT KENIN DCT KARIL DCT REVDA DCT UDROS UN743 GAKSU DCT ROLIN/N0452F370 DCT DISKA M737 VERCA M747 SUBUT T923 ERLEV |
| Aircraft | B738/M-SDE2E3FGHIRWXY/LB1 |
Departure
| Time | N/A |
|---|---|
| Airport | Warsaw Chopin Airport (EPWA) |
Arrival
| Time | 2026-05-04 02:21 |
|---|---|
| Airport | Heydar Aliyev International Airport (UBBB) |
| Time | Latitude | Longitude | Altitude | Speed | Heading |
|---|---|---|---|---|---|
| 2026-05-04 01:30 | 41.62433 | 43.32779 | 34807 ft | 454 kts | 99° |
| 2026-05-04 01:30 | 41.61819 | 43.41182 | 34803 ft | 454 kts | 99° |
| 2026-05-04 01:31 | 41.61205 | 43.49488 | 34820 ft | 454 kts | 99° |
| 2026-05-04 01:31 | 41.60576 | 43.57891 | 34852 ft | 454 kts | 99° |
| 2026-05-04 01:32 | 41.59941 | 43.66296 | 34853 ft | 455 kts | 99° |
| 2026-05-04 01:32 | 41.59299 | 43.74717 | 34875 ft | 455 kts | 100° |
| 2026-05-04 01:33 | 41.58654 | 43.83117 | 34870 ft | 455 kts | 100° |
| 2026-05-04 01:33 | 41.58000 | 43.91523 | 34897 ft | 455 kts | 101° |
| 2026-05-04 01:34 | 41.57337 | 43.99960 | 34909 ft | 456 kts | 101° |
| 2026-05-04 01:34 | 41.56670 | 44.08375 | 34921 ft | 457 kts | 101° |
| 2026-05-04 01:35 | 41.55996 | 44.16815 | 34932 ft | 458 kts | 101° |
| 2026-05-04 01:35 | 41.55311 | 44.25292 | 34931 ft | 459 kts | 101° |
| 2026-05-04 01:36 | 41.54621 | 44.33760 | 34938 ft | 460 kts | 101° |
| 2026-05-04 01:36 | 41.53923 | 44.42256 | 34951 ft | 460 kts | 101° |
| 2026-05-04 01:37 | 41.53219 | 44.50744 | 34940 ft | 461 kts | 101° |
| 2026-05-04 01:37 | 41.52874 | 44.54868 | 34823 ft | 461 kts | 101° |
| 2026-05-04 01:37 | 41.52520 | 44.59087 | 34977 ft | 458 kts | 101° |
| 2026-05-04 01:38 | 41.51823 | 44.67359 | 34962 ft | 456 kts | 101° |
| 2026-05-04 01:38 | 41.51107 | 44.75758 | 34976 ft | 456 kts | 101° |
| 2026-05-04 01:39 | 41.50386 | 44.84152 | 34982 ft | 455 kts | 101° |
| 2026-05-04 01:39 | 41.49658 | 44.92542 | 34978 ft | 455 kts | 101° |
| 2026-05-04 01:40 | 41.48923 | 45.00951 | 34937 ft | 456 kts | 101° |
| 2026-05-04 01:40 | 41.48183 | 45.09344 | 34940 ft | 457 kts | 101° |
| 2026-05-04 01:41 | 41.47434 | 45.17780 | 34944 ft | 460 kts | 101° |
| 2026-05-04 01:41 | 41.46453 | 45.26200 | 34926 ft | 456 kts | 112° |
| 2026-05-04 01:41 | 41.45241 | 45.30069 | 34947 ft | 450 kts | 123° |
| 2026-05-04 01:42 | 41.43554 | 45.33541 | 34943 ft | 444 kts | 134° |
| 2026-05-04 01:42 | 41.39365 | 45.39531 | 34931 ft | 442 kts | 139° |
| 2026-05-04 01:43 | 41.35124 | 45.45464 | 34944 ft | 444 kts | 138° |
| 2026-05-04 01:43 | 41.30889 | 45.51488 | 34943 ft | 446 kts | 138° |
| 2026-05-04 01:44 | 41.26661 | 45.57529 | 34932 ft | 446 kts | 138° |
| 2026-05-04 01:44 | 41.22505 | 45.63655 | 34942 ft | 450 kts | 131° |
| 2026-05-04 01:45 | 41.19541 | 45.71024 | 34950 ft | 461 kts | 114° |
| 2026-05-04 01:45 | 41.16431 | 45.83120 | 34940 ft | 461 kts | 113° |
| 2026-05-04 01:46 | 41.14330 | 45.91189 | 34957 ft | 459 kts | 114° |
| 2026-05-04 01:46 | 41.12207 | 45.99161 | 34962 ft | 458 kts | 114° |
| 2026-05-04 01:47 | 41.10081 | 46.07089 | 34972 ft | 457 kts | 114° |
| 2026-05-04 01:47 | 41.07966 | 46.14960 | 34952 ft | 457 kts | 114° |
| 2026-05-04 01:48 | 41.05904 | 46.22619 | 34983 ft | 457 kts | 114° |
| 2026-05-04 01:48 | 41.03764 | 46.30542 | 34995 ft | 459 kts | 114° |
| 2026-05-04 01:49 | 41.01623 | 46.38556 | 34996 ft | 462 kts | 114° |
| 2026-05-04 01:49 | 40.99488 | 46.46576 | 34976 ft | 464 kts | 114° |
| 2026-05-04 01:50 | 40.97683 | 46.53329 | 34995 ft | 465 kts | 114° |
| 2026-05-04 01:50 | 40.95512 | 46.61412 | 34996 ft | 467 kts | 114° |
| 2026-05-04 01:51 | 40.93328 | 46.69522 | 34998 ft | 469 kts | 114° |
| 2026-05-04 01:51 | 40.91129 | 46.77664 | 34975 ft | 470 kts | 114° |
| 2026-05-04 01:52 | 40.89481 | 46.86058 | 34987 ft | 479 kts | 100° |
| 2026-05-04 01:52 | 40.88894 | 46.94841 | 34986 ft | 481 kts | 98° |
| 2026-05-04 01:53 | 40.88336 | 47.03649 | 34989 ft | 481 kts | 99° |
| 2026-05-04 01:53 | 40.87716 | 47.12439 | 34967 ft | 481 kts | 99° |
| 2026-05-04 01:54 | 40.87304 | 47.18017 | 34980 ft | 481 kts | 99° |
| 2026-05-04 01:54 | 40.86654 | 47.26685 | 34988 ft | 481 kts | 99° |
| 2026-05-04 01:55 | 40.85986 | 47.35542 | 34995 ft | 481 kts | 99° |
| 2026-05-04 01:55 | 40.85321 | 47.44295 | 34532 ft | 488 kts | 99° |
| 2026-05-04 01:56 | 40.84974 | 47.48821 | 33947 ft | 487 kts | 99° |
| 2026-05-04 01:56 | 40.84648 | 47.53186 | 33367 ft | 485 kts | 99° |
| 2026-05-04 01:56 | 40.84359 | 47.57607 | 32913 ft | 479 kts | 99° |
| 2026-05-04 01:56 | 40.84099 | 47.61924 | 32447 ft | 475 kts | 98° |
| 2026-05-04 01:57 | 40.83844 | 47.66269 | 32007 ft | 471 kts | 98° |
| 2026-05-04 01:57 | 40.83591 | 47.70552 | 31570 ft | 467 kts | 98° |
| 2026-05-04 01:57 | 40.83335 | 47.74808 | 31130 ft | 463 kts | 99° |
| 2026-05-04 01:57 | 40.83072 | 47.79081 | 30686 ft | 460 kts | 99° |
| 2026-05-04 01:58 | 40.82809 | 47.83272 | 30229 ft | 457 kts | 99° |
| 2026-05-04 01:58 | 40.82550 | 47.87342 | 29766 ft | 454 kts | 99° |
| 2026-05-04 01:58 | 40.82282 | 47.91530 | 29244 ft | 451 kts | 99° |
| 2026-05-04 01:58 | 40.82013 | 47.95700 | 28759 ft | 447 kts | 99° |
| 2026-05-04 01:59 | 40.81755 | 47.99697 | 28324 ft | 443 kts | 99° |
| 2026-05-04 01:59 | 40.81493 | 48.03723 | 27876 ft | 439 kts | 99° |
| 2026-05-04 01:59 | 40.81232 | 48.07724 | 27432 ft | 435 kts | 99° |
| 2026-05-04 01:59 | 40.80971 | 48.11681 | 26985 ft | 432 kts | 99° |
| 2026-05-04 02:00 | 40.80712 | 48.15609 | 26549 ft | 430 kts | 99° |
| 2026-05-04 02:00 | 40.80451 | 48.19539 | 26118 ft | 428 kts | 99° |
| 2026-05-04 02:00 | 40.80190 | 48.23426 | 25681 ft | 425 kts | 99° |
| 2026-05-04 02:00 | 40.79930 | 48.27291 | 25270 ft | 424 kts | 99° |
| 2026-05-04 02:01 | 40.79670 | 48.31143 | 24799 ft | 423 kts | 99° |
| 2026-05-04 02:01 | 40.79408 | 48.35006 | 24377 ft | 421 kts | 99° |
| 2026-05-04 02:01 | 40.79146 | 48.38851 | 23942 ft | 420 kts | 99° |
| 2026-05-04 02:01 | 40.78883 | 48.42682 | 23494 ft | 419 kts | 99° |
| 2026-05-04 02:02 | 40.78620 | 48.46506 | 22988 ft | 417 kts | 99° |
| 2026-05-04 02:02 | 40.78358 | 48.50299 | 22532 ft | 414 kts | 99° |
| 2026-05-04 02:02 | 40.78096 | 48.54078 | 22097 ft | 412 kts | 99° |
| 2026-05-04 02:02 | 40.77836 | 48.57818 | 21680 ft | 409 kts | 99° |
| 2026-05-04 02:03 | 40.77575 | 48.61539 | 21231 ft | 406 kts | 99° |
| 2026-05-04 02:03 | 40.77314 | 48.65234 | 20817 ft | 402 kts | 98° |
| 2026-05-04 02:03 | 40.77058 | 48.68854 | 20431 ft | 399 kts | 98° |
| 2026-05-04 02:03 | 40.76801 | 48.72476 | 20025 ft | 397 kts | 98° |
| 2026-05-04 02:04 | 40.76543 | 48.76088 | 19613 ft | 394 kts | 98° |
| 2026-05-04 02:04 | 40.76287 | 48.79673 | 19204 ft | 391 kts | 99° |
| 2026-05-04 02:04 | 40.76029 | 48.83243 | 18776 ft | 390 kts | 99° |
| 2026-05-04 02:04 | 40.75772 | 48.86792 | 18379 ft | 388 kts | 98° |
| 2026-05-04 02:05 | 40.75515 | 48.90328 | 17917 ft | 386 kts | 99° |
| 2026-05-04 02:05 | 40.75259 | 48.93833 | 17494 ft | 383 kts | 98° |
| 2026-05-04 02:05 | 40.75004 | 48.97317 | 17096 ft | 380 kts | 98° |
| 2026-05-04 02:05 | 40.74750 | 49.00772 | 16673 ft | 378 kts | 98° |
| 2026-05-04 02:06 | 40.74497 | 49.04199 | 16272 ft | 375 kts | 99° |
| 2026-05-04 02:06 | 40.74245 | 49.07605 | 15890 ft | 372 kts | 99° |
| 2026-05-04 02:06 | 40.73992 | 49.11000 | 15502 ft | 370 kts | 98° |
| 2026-05-04 02:06 | 40.73740 | 49.14365 | 15115 ft | 368 kts | 98° |
| 2026-05-04 02:07 | 40.73476 | 49.17690 | 14739 ft | 364 kts | 102° |
| 2026-05-04 02:07 | 40.72768 | 49.20837 | 14432 ft | 353 kts | 118° |
| 2026-05-04 02:07 | 40.71605 | 49.23652 | 14099 ft | 346 kts | 126° |
| 2026-05-04 02:07 | 40.70327 | 49.26333 | 13674 ft | 346 kts | 127° |
| 2026-05-04 02:08 | 40.69036 | 49.28998 | 13247 ft | 345 kts | 127° |
| 2026-05-04 02:08 | 40.67753 | 49.31648 | 12882 ft | 342 kts | 127° |
| 2026-05-04 02:08 | 40.66484 | 49.34280 | 12524 ft | 339 kts | 127° |
| 2026-05-04 02:08 | 40.65233 | 49.36883 | 12181 ft | 333 kts | 127° |
| 2026-05-04 02:09 | 40.64024 | 49.39410 | 11928 ft | 320 kts | 127° |
| 2026-05-04 02:09 | 40.62858 | 49.41853 | 11601 ft | 311 kts | 127° |
| 2026-05-04 02:09 | 40.61725 | 49.44225 | 11299 ft | 302 kts | 127° |
| 2026-05-04 02:09 | 40.60627 | 49.46522 | 10884 ft | 298 kts | 127° |
| 2026-05-04 02:10 | 40.59512 | 49.48849 | 10426 ft | 295 kts | 127° |
| 2026-05-04 02:10 | 40.58426 | 49.51114 | 9986 ft | 292 kts | 127° |
| 2026-05-04 02:10 | 40.57343 | 49.53372 | 9480 ft | 291 kts | 127° |
| 2026-05-04 02:10 | 40.56268 | 49.55614 | 9047 ft | 288 kts | 127° |
| 2026-05-04 02:11 | 40.55205 | 49.57831 | 8618 ft | 284 kts | 127° |
| 2026-05-04 02:11 | 40.54147 | 49.60034 | 8190 ft | 281 kts | 127° |
| 2026-05-04 02:11 | 40.53107 | 49.62202 | 7783 ft | 278 kts | 127° |
| 2026-05-04 02:11 | 40.52099 | 49.64299 | 7448 ft | 273 kts | 127° |
| 2026-05-04 02:12 | 40.51087 | 49.66407 | 7163 ft | 267 kts | 127° |
| 2026-05-04 02:12 | 40.50098 | 49.68461 | 6899 ft | 266 kts | 127° |
| 2026-05-04 02:12 | 40.49109 | 49.70513 | 6614 ft | 265 kts | 127° |
| 2026-05-04 02:12 | 40.48133 | 49.72538 | 6339 ft | 265 kts | 127° |
| 2026-05-04 02:13 | 40.47144 | 49.74587 | 6047 ft | 265 kts | 127° |
| 2026-05-04 02:13 | 40.46165 | 49.76616 | 5760 ft | 264 kts | 126° |
| 2026-05-04 02:13 | 40.45183 | 49.78650 | 5481 ft | 263 kts | 126° |
| 2026-05-04 02:13 | 40.44206 | 49.80672 | 5208 ft | 262 kts | 126° |
| 2026-05-04 02:14 | 40.43237 | 49.82678 | 5045 ft | 256 kts | 126° |
| 2026-05-04 02:14 | 40.42308 | 49.84605 | 5002 ft | 245 kts | 126° |
| 2026-05-04 02:14 | 40.41417 | 49.86450 | 4985 ft | 233 kts | 126° |
| 2026-05-04 02:14 | 40.40573 | 49.88196 | 5001 ft | 223 kts | 127° |
| 2026-05-04 02:15 | 40.39748 | 49.89898 | 4915 ft | 219 kts | 127° |
| 2026-05-04 02:15 | 40.38937 | 49.91568 | 4602 ft | 217 kts | 127° |
| 2026-05-04 02:15 | 40.38121 | 49.93247 | 4188 ft | 219 kts | 126° |
| 2026-05-04 02:15 | 40.37308 | 49.94922 | 4030 ft | 217 kts | 126° |
| 2026-05-04 02:16 | 40.36481 | 49.96624 | 3711 ft | 224 kts | 126° |
| 2026-05-04 02:16 | 40.35661 | 49.98313 | 3555 ft | 213 kts | 126° |
| 2026-05-04 02:16 | 40.34895 | 49.99894 | 3494 ft | 197 kts | 126° |
| 2026-05-04 02:16 | 40.34192 | 50.01342 | 3478 ft | 181 kts | 126° |
| 2026-05-04 02:17 | 40.33505 | 50.02751 | 3169 ft | 192 kts | 126° |
| 2026-05-04 02:17 | 40.32849 | 50.04228 | 3040 ft | 184 kts | 113° |
| 2026-05-04 02:17 | 40.32884 | 50.05912 | 2594 ft | 194 kts | 62° |
| 2026-05-04 02:17 | 40.33881 | 50.07026 | 2282 ft | 191 kts | 13° |
| 2026-05-04 02:18 | 40.35184 | 50.07100 | 2071 ft | 182 kts | 354° |
| 2026-05-04 02:18 | 40.36408 | 50.06923 | 1826 ft | 172 kts | 352° |
| 2026-05-04 02:18 | 40.37547 | 50.06664 | 1594 ft | 162 kts | 347° |
| 2026-05-04 02:18 | 40.38627 | 50.06341 | 1369 ft | 153 kts | 345° |
| 2026-05-04 02:19 | 40.39626 | 50.06026 | 1205 ft | 143 kts | 346° |
| 2026-05-04 02:19 | 40.40580 | 50.05730 | 1131 ft | 137 kts | 346° |
| 2026-05-04 02:19 | 40.41505 | 50.05447 | 968 ft | 141 kts | 346° |
| 2026-05-04 02:19 | 40.42451 | 50.05127 | 788 ft | 138 kts | 345° |
| 2026-05-04 02:20 | 40.43357 | 50.04814 | 527 ft | 135 kts | 346° |
| 2026-05-04 02:20 | 40.44265 | 50.04541 | 327 ft | 131 kts | 348° |
| 2026-05-04 02:20 | 40.45136 | 50.04283 | 162 ft | 126 kts | 347° |
| 2026-05-04 02:20 | 40.45980 | 50.04017 | 27 ft | 119 kts | 347° |
| 2026-05-04 02:21 | 40.46682 | 50.03796 | 9 ft | 87 kts | 347° |
| 2026-05-04 02:21 | 40.47070 | 50.03682 | 12 ft | 47 kts | 347° |
| 2026-05-04 02:21 | 40.47344 | 50.03592 | 12 ft | 43 kts | 346° |
| 2026-05-04 02:21 | 40.47570 | 50.03521 | 12 ft | 26 kts | 346° |
| 2026-05-04 02:22 | 40.47676 | 50.03553 | 12 ft | 16 kts | 59° |
| 2026-05-04 02:22 | 40.47634 | 50.03661 | 12 ft | 15 kts | 159° |
| 2026-05-04 02:22 | 40.47553 | 50.03668 | 12 ft | 11 kts | 165° |
| 2026-05-04 02:22 | 40.47482 | 50.03698 | 13 ft | 11 kts | 160° |
| 2026-05-04 02:23 | 40.47414 | 50.03733 | 13 ft | 10 kts | 159° |
| 2026-05-04 02:23 | 40.47348 | 50.03765 | 14 ft | 10 kts | 160° |
| 2026-05-04 02:23 | 40.47284 | 50.03795 | 13 ft | 10 kts | 160° |
| 2026-05-04 02:23 | 40.47220 | 50.03826 | 13 ft | 10 kts | 159° |
| 2026-05-04 02:24 | 40.47161 | 50.03856 | 13 ft | 9 kts | 160° |
| 2026-05-04 02:24 | 40.47101 | 50.03885 | 13 ft | 9 kts | 159° |
| 2026-05-04 02:24 | 40.47038 | 50.03916 | 13 ft | 11 kts | 159° |
| 2026-05-04 02:24 | 40.46939 | 50.03965 | 13 ft | 19 kts | 159° |
| 2026-05-04 02:25 | 40.46853 | 50.04008 | 13 ft | 20 kts | 159° |
| 2026-05-04 02:25 | 40.46725 | 50.04072 | 14 ft | 20 kts | 160° |
| 2026-05-04 02:25 | 40.46597 | 50.04134 | 13 ft | 19 kts | 155° |
| 2026-05-04 02:25 | 40.46538 | 50.04276 | 13 ft | 19 kts | 93° |
| 2026-05-04 02:26 | 40.46542 | 50.04443 | 14 ft | 18 kts | 87° |
| 2026-05-04 02:26 | 40.46546 | 50.04587 | 14 ft | 13 kts | 88° |
| 2026-05-04 02:26 | 40.46549 | 50.04685 | 14 ft | 13 kts | 88° |
| 2026-05-04 02:26 | 40.46550 | 50.04727 | 14 ft | 0 kts | 88° |
| 2026-05-04 02:27 | 40.46550 | 50.04729 | 14 ft | 1 kts | 88° |
| 2026-05-04 02:27 | 40.46550 | 50.04734 | 14 ft | 1 kts | 88° |
| 2026-05-04 02:27 | 40.46550 | 50.04739 | 14 ft | 1 kts | 88° |
| 2026-05-04 02:28 | 40.46550 | 50.04747 | 14 ft | 2 kts | 88° |
| 2026-05-04 02:28 | 40.46551 | 50.04782 | 14 ft | 6 kts | 88° |
| 2026-05-04 02:28 | 40.46539 | 50.04843 | 15 ft | 8 kts | 149° |
| 2026-05-04 02:28 | 40.46483 | 50.04821 | 15 ft | 9 kts | 180° |
| 2026-05-04 02:29 | 40.46439 | 50.04849 | 14 ft | 4 kts | 148° |
| 2026-05-04 02:29 | 40.46417 | 50.04867 | 14 ft | 1 kts | 147° |
| 2026-05-04 02:29 | 40.46413 | 50.04870 | 14 ft | 1 kts | 147° |
| 2026-05-04 02:29 | 40.46409 | 50.04874 | 14 ft | 1 kts | 147° |
| 2026-05-04 02:30 | 40.46405 | 50.04877 | 14 ft | 0 kts | 147° |
| 2026-05-04 02:30 | 40.46404 | 50.04878 | 14 ft | 0 kts | 147° |